Aniara — SKJC — position and weather

sailwx.info

Track history (hours):
 
Tides and Currents Weather Stations Pressure Air Temp Water Temp Dewpoint Dewpoint Depression Visibility Wind Speed Wind Dir Waves Ship Positions

Aniara

Last reported at 2018-Jan-18 07:05 UTC. Time now 2018-Jan-22 02:47 UTC.
Position N 49°49' W 004°34'.

Length 232 m; draft 9.2 m.

Type: Cargo ship. MMSI: 266282000.

Date/timePositionNaut miles runAvg speedWind from/ knotsBaromVisibWave heightAir tempDewpointWater temp
2018-Jan-18 07:05N 49°49' W 004°34'1 9.3
2018-Jan-18 06:58N 49°49' W 004°32'4 9.3
2018-Jan-18 06:30N 49°51' W 004°26'5 9.1
2018-Jan-18 06:00N 49°53' W 004°20'5 9.2
2018-Jan-18 05:30N 49°55' W 004°14'5 9.2
2018-Jan-18 05:00N 49°58' W 004°08'5 9.3
2018-Jan-18 04:30N 50°00' W 004°02'5 9.1
2018-Jan-18 04:00N 50°03' W 003°56'5 9.6
2018-Jan-18 03:30N 50°05' W 003°49'5 9.7
2018-Jan-18 03:00N 50°07' W 003°43'510.3
2018-Jan-18 02:30N 50°10' W 003°36'5 9.8
2018-Jan-18 02:00N 50°12' W 003°29'510.2
2018-Jan-18 01:30N 50°15' W 003°22'510.8
2018-Jan-18 01:00N 50°17' W 003°14'1110.7
2018-Jan-18 00:00N 50°22' W 002°60'110.4
2018-Jan-17 23:57N 50°22' W 002°59'  
2018-Jan-12 14:58N 53°35' E 008°33'0 0.0
2018-Jan-12 14:31N 53°35' E 008°33'0 0.0
2018-Jan-12 14:01N 53°35' E 008°33'0 0.0
2018-Jan-12 13:30N 53°35' E 008°33'0 0.0
2018-Jan-12 13:01N 53°35' E 008°33'0 0.0
2018-Jan-12 12:30N 53°35' E 008°33'0 0.0
2018-Jan-12 12:01N 53°35' E 008°33'0 0.0
2018-Jan-12 11:27N 53°35' E 008°33'0 0.0
2018-Jan-12 11:00N 53°35' E 008°33'0 0.0
2018-Jan-12 10:27N 53°35' E 008°33'0 0.0
2018-Jan-12 10:00N 53°35' E 008°33'0 0.0
2018-Jan-12 09:30N 53°35' E 008°33'0 0.0
2018-Jan-12 09:01N 53°35' E 008°33'0 0.0
2018-Jan-12 08:30N 53°35' E 008°33'0 0.0
2018-Jan-12 08:00N 53°35' E 008°33'0 0.0
2018-Jan-12 07:27N 53°35' E 008°33'0 0.0
2018-Jan-12 06:58N 53°35' E 008°33'0 0.0
2018-Jan-12 06:30N 53°35' E 008°33'0 0.0
2018-Jan-12 05:57N 53°35' E 008°33'0 0.0
2018-Jan-12 05:30N 53°35' E 008°33'0 0.0
2018-Jan-12 05:00N 53°35' E 008°33'0 0.0
2018-Jan-12 04:30N 53°35' E 008°33'0 0.0
2018-Jan-12 04:00N 53°35' E 008°33'0 0.0
2018-Jan-12 03:30N 53°35' E 008°33'0 0.0
2018-Jan-12 03:00N 53°35' E 008°33'0 0.0
2018-Jan-12 02:30N 53°35' E 008°33'0 0.0
2018-Jan-12 02:00N 53°35' E 008°33'0 0.0
2018-Jan-12 01:30N 53°35' E 008°33'0 0.0
2018-Jan-12 00:57N 53°35' E 008°33'0 0.0
2018-Jan-12 00:30N 53°35' E 008°33'0 0.0
2018-Jan-12 00:00N 53°35' E 008°33'0 0.0
2018-Jan-11 23:30N 53°35' E 008°33'0 0.0
2018-Jan-11 23:00N 53°35' E 008°33'0 0.0
2018-Jan-11 22:30N 53°35' E 008°33'0 0.0
2018-Jan-11 22:00N 53°35' E 008°33'0 0.0
2018-Jan-11 21:30N 53°35' E 008°33'0 0.0
2018-Jan-11 21:00N 53°35' E 008°33'0 0.0
2018-Jan-11 20:30N 53°35' E 008°33'0 0.0
2018-Jan-11 20:00N 53°35' E 008°33'0 0.0
2018-Jan-11 19:30N 53°35' E 008°33'0 0.0
2018-Jan-11 19:00N 53°35' E 008°33'0 0.0
2018-Jan-11 18:30N 53°35' E 008°33'0 0.0
2018-Jan-11 18:00N 53°35' E 008°33'0 0.0
2018-Jan-11 17:30N 53°35' E 008°33'0 0.0
2018-Jan-11 17:00N 53°35' E 008°33'0 0.0
2018-Jan-11 16:30N 53°35' E 008°33'0 0.0
2018-Jan-11 16:00N 53°35' E 008°33'0 0.0
2018-Jan-11 15:30N 53°35' E 008°33'0 0.0
2018-Jan-11 15:00N 53°35' E 008°33'0 0.0
2018-Jan-11 14:31N 53°35' E 008°33'0 0.0
2018-Jan-11 13:58N 53°35' E 008°33'0 0.0
2018-Jan-11 13:30N 53°35' E 008°33'0 0.0
2018-Jan-11 13:01N 53°35' E 008°33'0 0.0
2018-Jan-11 12:30N 53°35' E 008°33'0 0.0
2018-Jan-11 12:00N 53°35' E 008°33'0 0.0
2018-Jan-11 11:30N 53°35' E 008°33'0 0.0
2018-Jan-11 11:00N 53°35' E 008°33'0 0.0
2018-Jan-11 10:30N 53°35' E 008°33'0 0.0
2018-Jan-11 10:01N 53°35' E 008°33'0 0.0
2018-Jan-11 09:30N 53°35' E 008°33'0 0.0
2018-Jan-11 09:00N 53°35' E 008°33'0 0.0
2018-Jan-11 08:30N 53°35' E 008°33'0 0.0
2018-Jan-11 08:00N 53°35' E 008°33'0 0.7
2018-Jan-11 07:30N 53°34' E 008°33'0 0.8
2018-Jan-11 07:01N 53°34' E 008°33'0 0.0
2018-Jan-11 06:28N 53°34' E 008°33'0 0.0
2018-Jan-11 05:58N 53°34' E 008°33'0 0.0
2018-Jan-11 05:28N 53°34' E 008°33'0 0.0
2018-Jan-11 04:58N 53°34' E 008°33'0 0.0
2018-Jan-11 04:28N 53°34' E 008°33'0 0.0
2018-Jan-11 03:58N 53°34' E 008°33'0 0.0
2018-Jan-11 03:28N 53°34' E 008°33'0 0.0
2018-Jan-11 02:58N 53°34' E 008°33'0 0.0
2018-Jan-11 02:28N 53°34' E 008°33'0 0.0
2018-Jan-11 01:58N 53°34' E 008°33'0 0.0
2018-Jan-11 01:28N 53°34' E 008°33'0 0.0
2018-Jan-11 00:58N 53°34' E 008°33'0 0.0
2018-Jan-11 00:28N 53°34' E 008°33'0 0.0
2018-Jan-10 23:58N 53°34' E 008°33'0 0.0
2018-Jan-10 23:28N 53°34' E 008°33'0 0.0
2018-Jan-10 22:58N 53°34' E 008°33'0 0.0
2018-Jan-10 22:28N 53°34' E 008°33'0 0.0
2018-Jan-10 21:58N 53°34' E 008°33'0 0.0
2018-Jan-10 21:28N 53°34' E 008°33'0 0.0
2018-Jan-10 20:58N 53°34' E 008°33'0 0.0
2018-Jan-10 20:28N 53°34' E 008°33'0 0.0
2018-Jan-10 19:58N 53°34' E 008°33'0 0.0
2018-Jan-10 19:28N 53°34' E 008°33'0 0.0
2018-Jan-10 18:58N 53°34' E 008°33'0 0.0
2018-Jan-10 18:28N 53°34' E 008°33'0 0.0
2018-Jan-10 17:58N 53°34' E 008°33'0 0.0
2018-Jan-10 17:28N 53°34' E 008°33'0 0.0
2018-Jan-10 16:58N 53°34' E 008°33'0 0.0
2018-Jan-10 16:28N 53°34' E 008°33'0 0.0
2018-Jan-10 15:58N 53°34' E 008°33'0 0.0
2018-Jan-10 15:28N 53°34' E 008°33'0 0.0
2018-Jan-10 14:58N 53°34' E 008°33'0 0.0
2018-Jan-10 14:28N 53°34' E 008°33'0 0.0
2018-Jan-10 13:58N 53°34' E 008°33'0 0.0
2018-Jan-10 13:28N 53°34' E 008°33'0 0.0
2018-Jan-10 12:58N 53°34' E 008°33'0 0.0
2018-Jan-10 12:28N 53°34' E 008°33'0 0.0
2018-Jan-10 11:58N 53°34' E 008°33'0 0.0
2018-Jan-10 11:28N 53°34' E 008°33'0 0.0
2018-Jan-10 10:58N 53°34' E 008°33'0 0.0
2018-Jan-10 10:28N 53°34' E 008°33'0 0.0
2018-Jan-10 09:58N 53°34' E 008°33'0 0.0
2018-Jan-10 09:28N 53°34' E 008°33'0 0.0
2018-Jan-10 08:58N 53°34' E 008°33'0 0.0
2018-Jan-10 08:28N 53°34' E 008°33'0 0.0
2018-Jan-10 07:58N 53°34' E 008°33'0 0.0
2018-Jan-10 07:28N 53°34' E 008°33'0 0.0
2018-Jan-10 06:58N 53°34' E 008°33'0 0.0
2018-Jan-10 06:28N 53°34' E 008°33'0 0.0
2018-Jan-10 05:58N 53°34' E 008°33'0 0.0
2018-Jan-10 05:28N 53°34' E 008°33'0 0.0
2018-Jan-10 04:58N 53°34' E 008°33'0 0.0
2018-Jan-10 04:28N 53°34' E 008°33'0 0.0
2018-Jan-10 03:58N 53°34' E 008°33'0 0.0
2018-Jan-10 03:28N 53°34' E 008°33'0 0.0
2018-Jan-10 02:58N 53°34' E 008°33'0 0.0
2018-Jan-10 02:28N 53°34' E 008°33'0 0.0
2018-Jan-10 01:58N 53°34' E 008°33'0 0.0
2018-Jan-10 01:28N 53°34' E 008°33'0 0.0
2018-Jan-10 00:58N 53°34' E 008°33'0 0.0
2018-Jan-10 00:28N 53°34' E 008°33'0 0.0
2018-Jan-09 23:58N 53°34' E 008°33'0 0.0
2018-Jan-09 23:28N 53°34' E 008°33'0 0.0
2018-Jan-09 22:58N 53°34' E 008°33'0 0.0
2018-Jan-09 22:28N 53°34' E 008°33'0 0.0
2018-Jan-09 21:58N 53°34' E 008°33'0 0.0
2018-Jan-09 21:28N 53°34' E 008°33'0 0.0
2018-Jan-09 20:58N 53°34' E 008°33'0 0.0
2018-Jan-09 20:28N 53°34' E 008°33'0 0.0
2018-Jan-09 19:58N 53°34' E 008°33'0 0.0
2018-Jan-09 19:28N 53°34' E 008°33'0 0.0
2018-Jan-09 18:58N 53°34' E 008°33'0 0.0
2018-Jan-09 18:28N 53°34' E 008°33'0 0.0
2018-Jan-09 17:58N 53°34' E 008°33'0 0.0
2018-Jan-09 17:28N 53°34' E 008°33'0 0.0
2018-Jan-09 16:58N 53°34' E 008°33'0 0.0
2018-Jan-09 16:28N 53°34' E 008°33'0 0.0
2018-Jan-09 15:58N 53°34' E 008°33'0 0.0
2018-Jan-09 15:28N 53°34' E 008°33'0 0.0
2018-Jan-09 14:58N 53°34' E 008°33'0 0.0
2018-Jan-09 14:28N 53°34' E 008°33'0 0.0
2018-Jan-09 13:58N 53°34' E 008°33'0 0.0
2018-Jan-09 13:28N 53°34' E 008°33'0 0.0
2018-Jan-09 12:58N 53°34' E 008°33'0 0.0
2018-Jan-09 12:28N 53°34' E 008°33'0 0.0
2018-Jan-09 11:58N 53°34' E 008°33'0 0.0
2018-Jan-09 11:28N 53°34' E 008°33'0 0.0
2018-Jan-09 10:58N 53°34' E 008°33'0 0.0
2018-Jan-09 10:28N 53°34' E 008°33'0 0.0
2018-Jan-09 09:58N 53°34' E 008°33'0 0.0
2018-Jan-09 09:28N 53°34' E 008°33'0 0.0
2018-Jan-09 08:58N 53°34' E 008°33'0 0.0
2018-Jan-09 08:28N 53°34' E 008°33'0 0.0
2018-Jan-09 07:58N 53°34' E 008°33'0 0.0
2018-Jan-09 07:28N 53°34' E 008°33'0 0.0
2018-Jan-09 06:58N 53°34' E 008°33'0 0.0
2018-Jan-09 06:28N 53°34' E 008°33'0 0.0
2018-Jan-09 05:58N 53°34' E 008°33'0 0.0
2018-Jan-09 05:28N 53°34' E 008°33'0 0.0
2018-Jan-09 04:58N 53°34' E 008°33'0 0.0
2018-Jan-09 04:28N 53°34' E 008°33'0 0.0
2018-Jan-09 03:58N 53°34' E 008°33'0 0.0
2018-Jan-09 03:28N 53°34' E 008°33'0 0.0
2018-Jan-09 02:58N 53°34' E 008°33'0 0.0
2018-Jan-09 02:28N 53°34' E 008°33'0 0.0
2018-Jan-09 01:58N 53°34' E 008°33'0 0.0
2018-Jan-09 01:28N 53°34' E 008°33'0 0.0
2018-Jan-09 00:58N 53°34' E 008°33'0 0.0
2018-Jan-09 00:28N 53°34' E 008°33'0 0.0
2018-Jan-08 23:58N 53°34' E 008°33'0 0.3
2018-Jan-08 23:30N 53°34' E 008°33'1 1.2
2018-Jan-08 23:00N 53°35' E 008°33'0 0.0
2018-Jan-08 22:30N 53°35' E 008°33'0 0.0
2018-Jan-08 21:58N 53°35' E 008°33'0 0.0
2018-Jan-08 21:28N 53°35' E 008°33'0 0.0
2018-Jan-08 20:58N 53°35' E 008°33'0 0.0
2018-Jan-08 20:28N 53°35' E 008°33'0 0.0
2018-Jan-08 19:58N 53°35' E 008°33'0 0.0
2018-Jan-08 19:25N 53°35' E 008°33'0 0.0
2018-Jan-08 18:58N 53°35' E 008°33'0 0.0
2018-Jan-08 18:28N 53°35' E 008°33'0 0.0
2018-Jan-08 17:58N 53°35' E 008°33'0 0.0
2018-Jan-08 17:25N 53°35' E 008°33'0 0.0
2018-Jan-08 16:58N 53°35' E 008°33'0 0.0
2018-Jan-08 16:28N 53°35' E 008°33'0 0.0
2018-Jan-08 15:58N 53°35' E 008°33'0 0.0
2018-Jan-08 15:28N 53°35' E 008°33'0 0.0
2018-Jan-08 14:58N 53°35' E 008°33'0 0.0
2018-Jan-08 14:28N 53°35' E 008°33'0 0.0
2018-Jan-08 13:58N 53°35' E 008°33'0 0.0
2018-Jan-08 13:28N 53°35' E 008°33'0 0.0
2018-Jan-08 12:58N 53°35' E 008°33'0 0.0
2018-Jan-08 12:28N 53°35' E 008°33'0 0.0
2018-Jan-08 11:58N 53°35' E 008°33'0 0.0
2018-Jan-08 11:28N 53°35' E 008°33'0 0.0
2018-Jan-08 10:58N 53°35' E 008°33'0 0.0
2018-Jan-08 10:28N 53°35' E 008°33'0 0.0
2018-Jan-08 09:58N 53°35' E 008°33'0 0.0
2018-Jan-08 09:28N 53°35' E 008°33'0 0.0
2018-Jan-08 08:58N 53°35' E 008°33'0 0.0
2018-Jan-08 08:28N 53°35' E 008°33'0 0.0
2018-Jan-08 07:58N 53°35' E 008°33'0 0.0
2018-Jan-08 07:28N 53°35' E 008°33'  
Track history (hours):
 
Tides and Currents Weather Stations Pressure Air Temp Water Temp Dewpoint Dewpoint Depression Visibility Wind Speed Wind Dir Waves Ship Positions

Aniara

Last reported at 2018-Jan-18 07:05 UTC. Time now 2018-Jan-22 02:47 UTC.
Position N 49°49' W 004°34'.

Length 232 m; draft 9.2 m.

Type: Cargo ship. MMSI: 266282000.

Date/timePositionNaut miles runAvg speedWind from/ knotsBaromVisibWave heightAir tempDewpointWater temp
2018-Jan-18 07:05N 49°49' W 004°34'1 9.3
2018-Jan-18 06:58N 49°49' W 004°32'4 9.3
2018-Jan-18 06:30N 49°51' W 004°26'5 9.1
2018-Jan-18 06:00N 49°53' W 004°20'5 9.2
2018-Jan-18 05:30N 49°55' W 004°14'5 9.2
2018-Jan-18 05:00N 49°58' W 004°08'5 9.3
2018-Jan-18 04:30N 50°00' W 004°02'5 9.1
2018-Jan-18 04:00N 50°03' W 003°56'5 9.6
2018-Jan-18 03:30N 50°05' W 003°49'5 9.7
2018-Jan-18 03:00N 50°07' W 003°43'510.3
2018-Jan-18 02:30N 50°10' W 003°36'5 9.8
2018-Jan-18 02:00N 50°12' W 003°29'510.2
2018-Jan-18 01:30N 50°15' W 003°22'510.8
2018-Jan-18 01:00N 50°17' W 003°14'1110.7
2018-Jan-18 00:00N 50°22' W 002°60'110.4
2018-Jan-17 23:57N 50°22' W 002°59'  
2018-Jan-12 14:58N 53°35' E 008°33'0 0.0
2018-Jan-12 14:31N 53°35' E 008°33'0 0.0
2018-Jan-12 14:01N 53°35' E 008°33'0 0.0
2018-Jan-12 13:30N 53°35' E 008°33'0 0.0
2018-Jan-12 13:01N 53°35' E 008°33'0 0.0
2018-Jan-12 12:30N 53°35' E 008°33'0 0.0
2018-Jan-12 12:01N 53°35' E 008°33'0 0.0
2018-Jan-12 11:27N 53°35' E 008°33'0 0.0
2018-Jan-12 11:00N 53°35' E 008°33'0 0.0
2018-Jan-12 10:27N 53°35' E 008°33'0 0.0
2018-Jan-12 10:00N 53°35' E 008°33'0 0.0
2018-Jan-12 09:30N 53°35' E 008°33'0 0.0
2018-Jan-12 09:01N 53°35' E 008°33'0 0.0
2018-Jan-12 08:30N 53°35' E 008°33'0 0.0
2018-Jan-12 08:00N 53°35' E 008°33'0 0.0
2018-Jan-12 07:27N 53°35' E 008°33'0 0.0
2018-Jan-12 06:58N 53°35' E 008°33'0 0.0
2018-Jan-12 06:30N 53°35' E 008°33'0 0.0
2018-Jan-12 05:57N 53°35' E 008°33'0 0.0
2018-Jan-12 05:30N 53°35' E 008°33'0 0.0
2018-Jan-12 05:00N 53°35' E 008°33'0 0.0
2018-Jan-12 04:30N 53°35' E 008°33'0 0.0
2018-Jan-12 04:00N 53°35' E 008°33'0 0.0
2018-Jan-12 03:30N 53°35' E 008°33'0 0.0
2018-Jan-12 03:00N 53°35' E 008°33'0 0.0
2018-Jan-12 02:30N 53°35' E 008°33'0 0.0
2018-Jan-12 02:00N 53°35' E 008°33'0 0.0
2018-Jan-12 01:30N 53°35' E 008°33'0 0.0
2018-Jan-12 00:57N 53°35' E 008°33'0 0.0
2018-Jan-12 00:30N 53°35' E 008°33'0 0.0
2018-Jan-12 00:00N 53°35' E 008°33'0 0.0
2018-Jan-11 23:30N 53°35' E 008°33'0 0.0
2018-Jan-11 23:00N 53°35' E 008°33'0 0.0
2018-Jan-11 22:30N 53°35' E 008°33'0 0.0
2018-Jan-11 22:00N 53°35' E 008°33'0 0.0
2018-Jan-11 21:30N 53°35' E 008°33'0 0.0
2018-Jan-11 21:00N 53°35' E 008°33'0 0.0
2018-Jan-11 20:30N 53°35' E 008°33'0 0.0
2018-Jan-11 20:00N 53°35' E 008°33'0 0.0
2018-Jan-11 19:30N 53°35' E 008°33'0 0.0
2018-Jan-11 19:00N 53°35' E 008°33'0 0.0
2018-Jan-11 18:30N 53°35' E 008°33'0 0.0
2018-Jan-11 18:00N 53°35' E 008°33'0 0.0
2018-Jan-11 17:30N 53°35' E 008°33'0 0.0
2018-Jan-11 17:00N 53°35' E 008°33'0 0.0
2018-Jan-11 16:30N 53°35' E 008°33'0 0.0
2018-Jan-11 16:00N 53°35' E 008°33'0 0.0
2018-Jan-11 15:30N 53°35' E 008°33'0 0.0
2018-Jan-11 15:00N 53°35' E 008°33'0 0.0
2018-Jan-11 14:31N 53°35' E 008°33'0 0.0
2018-Jan-11 13:58N 53°35' E 008°33'0 0.0
2018-Jan-11 13:30N 53°35' E 008°33'0 0.0
2018-Jan-11 13:01N 53°35' E 008°33'0 0.0
2018-Jan-11 12:30N 53°35' E 008°33'0 0.0
2018-Jan-11 12:00N 53°35' E 008°33'0 0.0
2018-Jan-11 11:30N 53°35' E 008°33'0 0.0
2018-Jan-11 11:00N 53°35' E 008°33'0 0.0
2018-Jan-11 10:30N 53°35' E 008°33'0 0.0
2018-Jan-11 10:01N 53°35' E 008°33'0 0.0
2018-Jan-11 09:30N 53°35' E 008°33'0 0.0
2018-Jan-11 09:00N 53°35' E 008°33'0 0.0
2018-Jan-11 08:30N 53°35' E 008°33'0 0.0
2018-Jan-11 08:00N 53°35' E 008°33'0 0.7
2018-Jan-11 07:30N 53°34' E 008°33'0 0.8
2018-Jan-11 07:01N 53°34' E 008°33'0 0.0
2018-Jan-11 06:28N 53°34' E 008°33'0 0.0
2018-Jan-11 05:58N 53°34' E 008°33'0 0.0
2018-Jan-11 05:28N 53°34' E 008°33'0 0.0
2018-Jan-11 04:58N 53°34' E 008°33'0 0.0
2018-Jan-11 04:28N 53°34' E 008°33'0 0.0
2018-Jan-11 03:58N 53°34' E 008°33'0 0.0
2018-Jan-11 03:28N 53°34' E 008°33'0 0.0
2018-Jan-11 02:58N 53°34' E 008°33'0 0.0
2018-Jan-11 02:28N 53°34' E 008°33'0 0.0
2018-Jan-11 01:58N 53°34' E 008°33'0 0.0
2018-Jan-11 01:28N 53°34' E 008°33'0 0.0
2018-Jan-11 00:58N 53°34' E 008°33'0 0.0
2018-Jan-11 00:28N 53°34' E 008°33'0 0.0
2018-Jan-10 23:58N 53°34' E 008°33'0 0.0
2018-Jan-10 23:28N 53°34' E 008°33'0 0.0
2018-Jan-10 22:58N 53°34' E 008°33'0 0.0
2018-Jan-10 22:28N 53°34' E 008°33'0 0.0
2018-Jan-10 21:58N 53°34' E 008°33'0 0.0
2018-Jan-10 21:28N 53°34' E 008°33'0 0.0
2018-Jan-10 20:58N 53°34' E 008°33'0 0.0
2018-Jan-10 20:28N 53°34' E 008°33'0 0.0
2018-Jan-10 19:58N 53°34' E 008°33'0 0.0
2018-Jan-10 19:28N 53°34' E 008°33'0 0.0
2018-Jan-10 18:58N 53°34' E 008°33'0 0.0
2018-Jan-10 18:28N 53°34' E 008°33'0 0.0
2018-Jan-10 17:58N 53°34' E 008°33'0 0.0
2018-Jan-10 17:28N 53°34' E 008°33'0 0.0
2018-Jan-10 16:58N 53°34' E 008°33'0 0.0
2018-Jan-10 16:28N 53°34' E 008°33'0 0.0
2018-Jan-10 15:58N 53°34' E 008°33'0 0.0
2018-Jan-10 15:28N 53°34' E 008°33'0 0.0
2018-Jan-10 14:58N 53°34' E 008°33'0 0.0
2018-Jan-10 14:28N 53°34' E 008°33'0 0.0
2018-Jan-10 13:58N 53°34' E 008°33'0 0.0
2018-Jan-10 13:28N 53°34' E 008°33'0 0.0
2018-Jan-10 12:58N 53°34' E 008°33'0 0.0
2018-Jan-10 12:28N 53°34' E 008°33'0 0.0
2018-Jan-10 11:58N 53°34' E 008°33'0 0.0
2018-Jan-10 11:28N 53°34' E 008°33'0 0.0
2018-Jan-10 10:58N 53°34' E 008°33'0 0.0
2018-Jan-10 10:28N 53°34' E 008°33'0 0.0
2018-Jan-10 09:58N 53°34' E 008°33'0 0.0
2018-Jan-10 09:28N 53°34' E 008°33'0 0.0
2018-Jan-10 08:58N 53°34' E 008°33'0 0.0
2018-Jan-10 08:28N 53°34' E 008°33'0 0.0
2018-Jan-10 07:58N 53°34' E 008°33'0 0.0
2018-Jan-10 07:28N 53°34' E 008°33'0 0.0
2018-Jan-10 06:58N 53°34' E 008°33'0 0.0
2018-Jan-10 06:28N 53°34' E 008°33'0 0.0
2018-Jan-10 05:58N 53°34' E 008°33'0 0.0
2018-Jan-10 05:28N 53°34' E 008°33'0 0.0
2018-Jan-10 04:58N 53°34' E 008°33'0 0.0
2018-Jan-10 04:28N 53°34' E 008°33'0 0.0
2018-Jan-10 03:58N 53°34' E 008°33'0 0.0
2018-Jan-10 03:28N 53°34' E 008°33'0 0.0
2018-Jan-10 02:58N 53°34' E 008°33'0 0.0
2018-Jan-10 02:28N 53°34' E 008°33'0 0.0
2018-Jan-10 01:58N 53°34' E 008°33'0 0.0
2018-Jan-10 01:28N 53°34' E 008°33'0 0.0
2018-Jan-10 00:58N 53°34' E 008°33'0 0.0
2018-Jan-10 00:28N 53°34' E 008°33'0 0.0
2018-Jan-09 23:58N 53°34' E 008°33'0 0.0
2018-Jan-09 23:28N 53°34' E 008°33'0 0.0
2018-Jan-09 22:58N 53°34' E 008°33'0 0.0
2018-Jan-09 22:28N 53°34' E 008°33'0 0.0
2018-Jan-09 21:58N 53°34' E 008°33'0 0.0
2018-Jan-09 21:28N 53°34' E 008°33'0 0.0
2018-Jan-09 20:58N 53°34' E 008°33'0 0.0
2018-Jan-09 20:28N 53°34' E 008°33'0 0.0
2018-Jan-09 19:58N 53°34' E 008°33'0 0.0
2018-Jan-09 19:28N 53°34' E 008°33'0 0.0
2018-Jan-09 18:58N 53°34' E 008°33'0 0.0
2018-Jan-09 18:28N 53°34' E 008°33'0 0.0
2018-Jan-09 17:58N 53°34' E 008°33'0 0.0
2018-Jan-09 17:28N 53°34' E 008°33'0 0.0
2018-Jan-09 16:58N 53°34' E 008°33'0 0.0
2018-Jan-09 16:28N 53°34' E 008°33'0 0.0
2018-Jan-09 15:58N 53°34' E 008°33'0 0.0
2018-Jan-09 15:28N 53°34' E 008°33'0 0.0
2018-Jan-09 14:58N 53°34' E 008°33'0 0.0
2018-Jan-09 14:28N 53°34' E 008°33'0 0.0
2018-Jan-09 13:58N 53°34' E 008°33'0 0.0
2018-Jan-09 13:28N 53°34' E 008°33'0 0.0
2018-Jan-09 12:58N 53°34' E 008°33'0 0.0
2018-Jan-09 12:28N 53°34' E 008°33'0 0.0
2018-Jan-09 11:58N 53°34' E 008°33'0 0.0
2018-Jan-09 11:28N 53°34' E 008°33'0 0.0
2018-Jan-09 10:58N 53°34' E 008°33'0 0.0
2018-Jan-09 10:28N 53°34' E 008°33'0 0.0
2018-Jan-09 09:58N 53°34' E 008°33'0 0.0
2018-Jan-09 09:28N 53°34' E 008°33'0 0.0
2018-Jan-09 08:58N 53°34' E 008°33'0 0.0
2018-Jan-09 08:28N 53°34' E 008°33'0 0.0
2018-Jan-09 07:58N 53°34' E 008°33'0 0.0
2018-Jan-09 07:28N 53°34' E 008°33'0 0.0
2018-Jan-09 06:58N 53°34' E 008°33'0 0.0
2018-Jan-09 06:28N 53°34' E 008°33'0 0.0
2018-Jan-09 05:58N 53°34' E 008°33'0 0.0
2018-Jan-09 05:28N 53°34' E 008°33'0 0.0
2018-Jan-09 04:58N 53°34' E 008°33'0 0.0
2018-Jan-09 04:28N 53°34' E 008°33'0 0.0
2018-Jan-09 03:58N 53°34' E 008°33'0 0.0
2018-Jan-09 03:28N 53°34' E 008°33'0 0.0
2018-Jan-09 02:58N 53°34' E 008°33'0 0.0
2018-Jan-09 02:28N 53°34' E 008°33'0 0.0
2018-Jan-09 01:58N 53°34' E 008°33'0 0.0
2018-Jan-09 01:28N 53°34' E 008°33'0 0.0
2018-Jan-09 00:58N 53°34' E 008°33'0 0.0
2018-Jan-09 00:28N 53°34' E 008°33'0 0.0
2018-Jan-08 23:58N 53°34' E 008°33'0 0.3
2018-Jan-08 23:30N 53°34' E 008°33'1 1.2
2018-Jan-08 23:00N 53°35' E 008°33'0 0.0
2018-Jan-08 22:30N 53°35' E 008°33'0 0.0
2018-Jan-08 21:58N 53°35' E 008°33'0 0.0
2018-Jan-08 21:28N 53°35' E 008°33'0 0.0
2018-Jan-08 20:58N 53°35' E 008°33'0 0.0
2018-Jan-08 20:28N 53°35' E 008°33'0 0.0
2018-Jan-08 19:58N 53°35' E 008°33'0 0.0
2018-Jan-08 19:25N 53°35' E 008°33'0 0.0
2018-Jan-08 18:58N 53°35' E 008°33'0 0.0
2018-Jan-08 18:28N 53°35' E 008°33'0 0.0
2018-Jan-08 17:58N 53°35' E 008°33'0 0.0
2018-Jan-08 17:25N 53°35' E 008°33'0 0.0
2018-Jan-08 16:58N 53°35' E 008°33'0 0.0
2018-Jan-08 16:28N 53°35' E 008°33'0 0.0
2018-Jan-08 15:58N 53°35' E 008°33'0 0.0
2018-Jan-08 15:28N 53°35' E 008°33'0 0.0
2018-Jan-08 14:58N 53°35' E 008°33'0 0.0
2018-Jan-08 14:28N 53°35' E 008°33'0 0.0
2018-Jan-08 13:58N 53°35' E 008°33'0 0.0
2018-Jan-08 13:28N 53°35' E 008°33'0 0.0
2018-Jan-08 12:58N 53°35' E 008°33'0 0.0
2018-Jan-08 12:28N 53°35' E 008°33'0 0.0
2018-Jan-08 11:58N 53°35' E 008°33'0 0.0
2018-Jan-08 11:28N 53°35' E 008°33'0 0.0
2018-Jan-08 10:58N 53°35' E 008°33'0 0.0
2018-Jan-08 10:28N 53°35' E 008°33'0 0.0
2018-Jan-08 09:58N 53°35' E 008°33'0 0.0
2018-Jan-08 09:28N 53°35' E 008°33'0 0.0
2018-Jan-08 08:58N 53°35' E 008°33'0 0.0
2018-Jan-08 08:28N 53°35' E 008°33'0 0.0
2018-Jan-08 07:58N 53°35' E 008°33'0 0.0
2018-Jan-08 07:28N 53°35' E 008°33'  

Dump ship's entire track history